Claxton — WCU9257 — position and weather

sailwx.info

Track history (hours):
 
Tides and Currents Weather Stations Pressure Air Temp Water Temp Dewpoint Dewpoint Depression Visibility Wind Speed Wind Dir Waves Ship Positions

Claxton

Owner: G & H TOWING COMPANY, GALVESTON, TX. More information available from US FCC via Universal Licensing System and Coast Guard Vessel Documentation Center.

Last reported at 2017-Dec-13 14:27 UTC. Time now 2017-Dec-17 10:10 UTC.
Position N 29°23' W 094°53'.

Length 27 m; draft 4.9 m.

Type: Tug. MMSI: 366921670.

Date/timePositionNaut miles runAvg speedWind from/ knotsBaromVisibWave heightAir tempDewpointWater temp
2017-Dec-13 14:27N 29°23' W 094°53'  
2017-Dec-09 09:04N 29°23' W 094°53'0 6.8
2017-Dec-09 09:00N 29°23' W 094°52'8 4.2
2017-Dec-09 07:04N 29°31' W 094°53'1 9.8
2017-Dec-09 06:58N 29°32' W 094°53'4 9.6
2017-Dec-09 06:30N 29°35' W 094°56'5 9.8
2017-Dec-09 06:00N 29°40' W 094°58'4 7.7
2017-Dec-09 05:30N 29°43' W 095°01'4 7.3
2017-Dec-09 05:00N 29°45' W 095°04'3 2.5
2017-Dec-09 03:48N 29°44' W 095°07'1 2.9
2017-Dec-09 03:30N 29°45' W 095°06'0 0.1
2017-Dec-09 03:00N 29°45' W 095°06'0 0.8
2017-Dec-09 02:30N 29°45' W 095°06'1 1.2
2017-Dec-09 01:55N 29°45' W 095°06'2 4.4
2017-Dec-09 01:24N 29°44' W 095°03'3 6.1
2017-Dec-09 00:58N 29°42' W 095°01'0 0.3
2017-Dec-09 00:21N 29°42' W 095°01'0 0.0
2017-Dec-09 00:00N 29°42' W 095°01'0 0.0
2017-Dec-08 23:30N 29°42' W 095°01'0 0.0
2017-Dec-08 22:56N 29°42' W 095°01'0 0.0
2017-Dec-08 22:30N 29°42' W 095°01'0 0.0
2017-Dec-08 22:00N 29°42' W 095°01'0 0.1
2017-Dec-08 21:30N 29°42' W 095°01'2 4.9
2017-Dec-08 21:00N 29°44' W 095°03'0 0.0
2017-Dec-08 20:14N 29°44' W 095°03'0 0.0
2017-Dec-08 19:50N 29°44' W 095°03'0 0.1
2017-Dec-08 19:01N 29°44' W 095°03'0 2.2
2017-Dec-08 18:58N 29°44' W 095°03'4 5.3
2017-Dec-08 18:15N 29°44' W 095°08'0 0.0
2017-Dec-08 18:00N 29°44' W 095°08'0 0.4
2017-Dec-08 17:26N 29°44' W 095°07'1 0.6
2017-Dec-08 16:07N 29°45' W 095°07'1 5.9
2017-Dec-08 15:58N 29°44' W 095°08'2 4.1
2017-Dec-08 15:22N 29°45' W 095°10'0 0.3
2017-Dec-08 14:58N 29°45' W 095°10'1 2.0
2017-Dec-08 14:30N 29°44' W 095°09'1 0.2
2017-Dec-08 08:54N 29°45' W 095°11'0 0.3
2017-Dec-08 08:30N 29°45' W 095°10'1 1.7
2017-Dec-08 08:00N 29°45' W 095°10'1 0.4
2017-Dec-08 05:59N 29°45' W 095°11'0 0.2
2017-Dec-08 05:29N 29°45' W 095°11'1 3.1
2017-Dec-08 05:00N 29°44' W 095°09'2 4.9
2017-Dec-08 04:30N 29°45' W 095°06'2 3.6
2017-Dec-08 03:59N 29°46' W 095°04'4 6.8
2017-Dec-08 03:21N 29°42' W 095°01'3 8.0
2017-Dec-08 03:00N 29°41' W 094°59'4 7.4
2017-Dec-08 02:30N 29°37' W 094°58'2 4.7
2017-Dec-08 02:00N 29°37' W 095°01'0 0.1
2017-Dec-08 01:30N 29°37' W 095°01'1 2.5
2017-Dec-08 01:00N 29°37' W 094°60'1 2.8
2017-Dec-08 00:29N 29°37' W 095°02'0 0.0
2017-Dec-07 23:59N 29°37' W 095°02'0 0.0
2017-Dec-07 23:29N 29°37' W 095°02'0 0.8
2017-Dec-07 23:00N 29°37' W 095°01'0 0.0
2017-Dec-07 22:30N 29°37' W 095°01'0 0.7
2017-Dec-07 22:00N 29°37' W 095°02'0 0.0
2017-Dec-07 21:30N 29°37' W 095°02'0 0.0
2017-Dec-07 21:00N 29°37' W 095°02'1 1.6
2017-Dec-07 20:30N 29°37' W 095°01'3 5.8
2017-Dec-07 20:01N 29°39' W 094°58'3 4.6
2017-Dec-07 19:28N 29°41' W 094°59'1 3.1
2017-Dec-07 19:00N 29°42' W 095°00'1 0.6
2017-Dec-07 17:36N 29°42' W 095°01'0 1.2
2017-Dec-07 17:30N 29°42' W 095°01'0 0.1
2017-Dec-07 17:00N 29°42' W 095°01'4 8.1
2017-Dec-07 16:29N 29°39' W 094°58'3 6.0
2017-Dec-07 16:01N 29°37' W 095°00'1 2.0
2017-Dec-07 15:30N 29°37' W 095°01'0 0.7
2017-Dec-07 15:00N 29°37' W 095°01'0 0.8
2017-Dec-07 14:30N 29°37' W 095°02'0 0.0
2017-Dec-07 14:00N 29°37' W 095°02'4 7.1
2017-Dec-07 13:30N 29°37' W 094°58'5 9.4
2017-Dec-07 13:01N 29°42' W 094°59'4 7.5
2017-Dec-07 12:30N 29°44' W 095°03'3 5.7
2017-Dec-07 12:01N 29°45' W 095°06'0 0.2
2017-Dec-07 11:19N 29°45' W 095°06'0 0.2
2017-Dec-07 10:44N 29°45' W 095°06'0 0.0
2017-Dec-07 10:28N 29°45' W 095°06'0 0.0
2017-Dec-07 09:59N 29°45' W 095°06'1 1.4
2017-Dec-07 09:29N 29°45' W 095°06'1 0.6
2017-Dec-07 08:23N 29°45' W 095°06'1 2.7
2017-Dec-07 07:59N 29°46' W 095°05'1 1.0
2017-Dec-07 06:51N 29°45' W 095°06'1 1.2
2017-Dec-07 06:24N 29°45' W 095°06'1 1.5
2017-Dec-07 05:56N 29°45' W 095°06'0 0.2
2017-Dec-07 03:44N 29°45' W 095°07'2 7.2
2017-Dec-07 03:30N 29°46' W 095°05'4 6.9
2017-Dec-07 02:57N 29°44' W 095°02'3 7.0
2017-Dec-07 02:30N 29°41' W 094°59'5 9.5
2017-Dec-07 02:01N 29°37' W 094°58'3 6.3
2017-Dec-07 01:30N 29°37' W 095°01'0 0.1
2017-Dec-07 01:01N 29°37' W 095°01'1 2.0
2017-Dec-07 00:31N 29°37' W 095°00'0 0.0
2017-Dec-06 23:58N 29°37' W 095°00'0 0.7
2017-Dec-06 23:30N 29°37' W 094°60'2 4.6
2017-Dec-06 23:00N 29°36' W 094°57'3 5.3
2017-Dec-06 22:29N 29°37' W 095°00'2 5.0
2017-Dec-06 22:01N 29°37' W 094°58'5 9.9
2017-Dec-06 21:31N 29°33' W 094°54'  
Track history (hours):
 
Tides and Currents Weather Stations Pressure Air Temp Water Temp Dewpoint Dewpoint Depression Visibility Wind Speed Wind Dir Waves Ship Positions

Claxton

Owner: G & H TOWING COMPANY, GALVESTON, TX. More information available from US FCC via Universal Licensing System and Coast Guard Vessel Documentation Center.

Last reported at 2017-Dec-13 14:27 UTC. Time now 2017-Dec-17 10:10 UTC.
Position N 29°23' W 094°53'.

Length 27 m; draft 4.9 m.

Type: Tug. MMSI: 366921670.

Date/timePositionNaut miles runAvg speedWind from/ knotsBaromVisibWave heightAir tempDewpointWater temp
2017-Dec-13 14:27N 29°23' W 094°53'  
2017-Dec-09 09:04N 29°23' W 094°53'0 6.8
2017-Dec-09 09:00N 29°23' W 094°52'8 4.2
2017-Dec-09 07:04N 29°31' W 094°53'1 9.8
2017-Dec-09 06:58N 29°32' W 094°53'4 9.6
2017-Dec-09 06:30N 29°35' W 094°56'5 9.8
2017-Dec-09 06:00N 29°40' W 094°58'4 7.7
2017-Dec-09 05:30N 29°43' W 095°01'4 7.3
2017-Dec-09 05:00N 29°45' W 095°04'3 2.5
2017-Dec-09 03:48N 29°44' W 095°07'1 2.9
2017-Dec-09 03:30N 29°45' W 095°06'0 0.1
2017-Dec-09 03:00N 29°45' W 095°06'0 0.8
2017-Dec-09 02:30N 29°45' W 095°06'1 1.2
2017-Dec-09 01:55N 29°45' W 095°06'2 4.4
2017-Dec-09 01:24N 29°44' W 095°03'3 6.1
2017-Dec-09 00:58N 29°42' W 095°01'0 0.3
2017-Dec-09 00:21N 29°42' W 095°01'0 0.0
2017-Dec-09 00:00N 29°42' W 095°01'0 0.0
2017-Dec-08 23:30N 29°42' W 095°01'0 0.0
2017-Dec-08 22:56N 29°42' W 095°01'0 0.0
2017-Dec-08 22:30N 29°42' W 095°01'0 0.0
2017-Dec-08 22:00N 29°42' W 095°01'0 0.1
2017-Dec-08 21:30N 29°42' W 095°01'2 4.9
2017-Dec-08 21:00N 29°44' W 095°03'0 0.0
2017-Dec-08 20:14N 29°44' W 095°03'0 0.0
2017-Dec-08 19:50N 29°44' W 095°03'0 0.1
2017-Dec-08 19:01N 29°44' W 095°03'0 2.2
2017-Dec-08 18:58N 29°44' W 095°03'4 5.3
2017-Dec-08 18:15N 29°44' W 095°08'0 0.0
2017-Dec-08 18:00N 29°44' W 095°08'0 0.4
2017-Dec-08 17:26N 29°44' W 095°07'1 0.6
2017-Dec-08 16:07N 29°45' W 095°07'1 5.9
2017-Dec-08 15:58N 29°44' W 095°08'2 4.1
2017-Dec-08 15:22N 29°45' W 095°10'0 0.3
2017-Dec-08 14:58N 29°45' W 095°10'1 2.0
2017-Dec-08 14:30N 29°44' W 095°09'1 0.2
2017-Dec-08 08:54N 29°45' W 095°11'0 0.3
2017-Dec-08 08:30N 29°45' W 095°10'1 1.7
2017-Dec-08 08:00N 29°45' W 095°10'1 0.4
2017-Dec-08 05:59N 29°45' W 095°11'0 0.2
2017-Dec-08 05:29N 29°45' W 095°11'1 3.1
2017-Dec-08 05:00N 29°44' W 095°09'2 4.9
2017-Dec-08 04:30N 29°45' W 095°06'2 3.6
2017-Dec-08 03:59N 29°46' W 095°04'4 6.8
2017-Dec-08 03:21N 29°42' W 095°01'3 8.0
2017-Dec-08 03:00N 29°41' W 094°59'4 7.4
2017-Dec-08 02:30N 29°37' W 094°58'2 4.7
2017-Dec-08 02:00N 29°37' W 095°01'0 0.1
2017-Dec-08 01:30N 29°37' W 095°01'1 2.5
2017-Dec-08 01:00N 29°37' W 094°60'1 2.8
2017-Dec-08 00:29N 29°37' W 095°02'0 0.0
2017-Dec-07 23:59N 29°37' W 095°02'0 0.0
2017-Dec-07 23:29N 29°37' W 095°02'0 0.8
2017-Dec-07 23:00N 29°37' W 095°01'0 0.0
2017-Dec-07 22:30N 29°37' W 095°01'0 0.7
2017-Dec-07 22:00N 29°37' W 095°02'0 0.0
2017-Dec-07 21:30N 29°37' W 095°02'0 0.0
2017-Dec-07 21:00N 29°37' W 095°02'1 1.6
2017-Dec-07 20:30N 29°37' W 095°01'3 5.8
2017-Dec-07 20:01N 29°39' W 094°58'3 4.6
2017-Dec-07 19:28N 29°41' W 094°59'1 3.1
2017-Dec-07 19:00N 29°42' W 095°00'1 0.6
2017-Dec-07 17:36N 29°42' W 095°01'0 1.2
2017-Dec-07 17:30N 29°42' W 095°01'0 0.1
2017-Dec-07 17:00N 29°42' W 095°01'4 8.1
2017-Dec-07 16:29N 29°39' W 094°58'3 6.0
2017-Dec-07 16:01N 29°37' W 095°00'1 2.0
2017-Dec-07 15:30N 29°37' W 095°01'0 0.7
2017-Dec-07 15:00N 29°37' W 095°01'0 0.8
2017-Dec-07 14:30N 29°37' W 095°02'0 0.0
2017-Dec-07 14:00N 29°37' W 095°02'4 7.1
2017-Dec-07 13:30N 29°37' W 094°58'5 9.4
2017-Dec-07 13:01N 29°42' W 094°59'4 7.5
2017-Dec-07 12:30N 29°44' W 095°03'3 5.7
2017-Dec-07 12:01N 29°45' W 095°06'0 0.2
2017-Dec-07 11:19N 29°45' W 095°06'0 0.2
2017-Dec-07 10:44N 29°45' W 095°06'0 0.0
2017-Dec-07 10:28N 29°45' W 095°06'0 0.0
2017-Dec-07 09:59N 29°45' W 095°06'1 1.4
2017-Dec-07 09:29N 29°45' W 095°06'1 0.6
2017-Dec-07 08:23N 29°45' W 095°06'1 2.7
2017-Dec-07 07:59N 29°46' W 095°05'1 1.0
2017-Dec-07 06:51N 29°45' W 095°06'1 1.2
2017-Dec-07 06:24N 29°45' W 095°06'1 1.5
2017-Dec-07 05:56N 29°45' W 095°06'0 0.2
2017-Dec-07 03:44N 29°45' W 095°07'2 7.2
2017-Dec-07 03:30N 29°46' W 095°05'4 6.9
2017-Dec-07 02:57N 29°44' W 095°02'3 7.0
2017-Dec-07 02:30N 29°41' W 094°59'5 9.5
2017-Dec-07 02:01N 29°37' W 094°58'3 6.3
2017-Dec-07 01:30N 29°37' W 095°01'0 0.1
2017-Dec-07 01:01N 29°37' W 095°01'1 2.0
2017-Dec-07 00:31N 29°37' W 095°00'0 0.0
2017-Dec-06 23:58N 29°37' W 095°00'0 0.7
2017-Dec-06 23:30N 29°37' W 094°60'2 4.6
2017-Dec-06 23:00N 29°36' W 094°57'3 5.3
2017-Dec-06 22:29N 29°37' W 095°00'2 5.0
2017-Dec-06 22:01N 29°37' W 094°58'5 9.9
2017-Dec-06 21:31N 29°33' W 094°54'  

Dump ship's entire track history